Latest Weather Observations for Strahan

IDT60801

Issued at 2:11 am EST Tuesday 17 May 2022 (issued every 10 minutes, with the page automatically refreshed every 10 minutes)

About weather observations | Map of weather stations | Latest weather observations for TAS | Other Formats
Station Details ID: 097072 Name: STRAHAN AERODROME Lat: -42.16 Lon: 145.29 Height: 21.0 m
Data from the previous 72 hours. | See also: Recent months at Strahan
Date/Time
EST
Temp
°C
App
Temp
°C
Dew
Point
°C
Rel
Hum
%
Delta-T
°C
Wind Press
QNH
hPa
Press
MSL
hPa
Rain since
9am
mm
Dir  Spd
km/h
Gust
km/h
Spd
kts
Gust
kts
17/02:09am 9.1 0.3 7.1 87 0.9 WNW 43 67 23 36 1007.1 1007.1 9.8
17/02:00am 9.6 1.4 6.5 81 1.4 WNW 39 61 21 33 1007.1 1007.1 9.6
17/01:30am 10.1 3.1 5.9 75 1.9 NW 32 52 17 28 1007.0 1007.0 9.2
17/01:09am 9.9 2.4 6.3 78 1.7 NW 35 54 19 29 1007.2 1007.2 9.2
17/01:00am 10.1 2.4 5.5 73 2.1 NW 35 50 19 27 1007.0 1007.0 9.2
17/12:34am 10.5 2.2 4.4 66 2.7 WNW 37 56 20 30 1007.0 1007.0 9.2
17/12:30am 10.4 2.7 5.2 70 2.4 WNW 35 48 19 26 1007.0 1007.0 9.2
17/12:01am 10.5 1.8 4.2 65 2.8 WNW 39 57 21 31 1006.8 1006.8 9.2
17/12:00am 10.5 1.4 4.0 64 2.9 WNW 41 57 22 31 1006.8 1006.8 9.2
 
Date/Time
EST
Temp
°C
App
Temp
°C
Dew
Point
°C
Rel
Hum
%
Delta-T
°C
Wind Press
QNH
hPa
Press
MSL
hPa
Rain since
9am
mm
Dir  Spd
km/h
Gust
km/h
Spd
kts
Gust
kts
16/11:30pm 8.6 0.0 4.8 77 1.7 WNW 39 67 21 36 1006.9 1006.9 9.2
16/11:20pm 10.0 2.4 6.0 76 1.8 NW 35 65 19 35 1007.0 1007.0 9.0
16/11:00pm 9.0 2.1 4.6 74 2.0 NW 30 43 16 23 1006.8 1006.8 9.0
16/10:32pm 7.9 1.6 5.5 85 1.1 NW 28 39 15 21 1007.1 1007.1 9.0
16/10:30pm 7.9 0.8 5.5 85 1.1 NW 32 43 17 23 1007.0 1007.0 9.0
16/10:24pm 7.9 0.2 5.5 85 1.1 WNW 35 57 19 31 1007.0 1007.0 9.0
16/10:14pm 7.7 -2.4 5.5 86 1.0 W 48 72 26 39 1007.4 1007.4 8.8
16/10:08pm 8.9 -0.3 5.3 78 1.6 WNW 43 72 23 39 1007.1 1007.1 8.2
16/10:00pm 9.9 2.0 4.3 68 2.5 WNW 35 54 19 29 1006.7 1006.7 8.2
16/09:44pm 9.6 1.7 4.2 69 2.4 WNW 35 54 19 29 1006.7 1006.7 8.2
16/09:30pm 9.3 1.5 4.7 73 2.0 WNW 35 50 19 27 1006.5 1006.5 8.2
16/09:25pm 9.5 2.2 5.3 75 1.9 WNW 33 48 18 26 1006.4 1006.4 8.2
16/09:07pm 8.6 -0.8 5.5 81 1.4 WNW 44 70 24 38 1006.4 1006.4 7.8
16/09:03pm 9.9 1.0 5.1 72 2.2 WNW 41 61 22 33 1006.1 1006.1 7.0
16/09:00pm 10.9 2.6 4.1 63 3.0 WNW 37 54 20 29 1005.9 1005.9 7.0
16/08:41pm 10.4 2.8 3.9 64 2.9 WNW 33 52 18 28 1005.7 1005.7 7.0
16/08:30pm 10.5 2.4 3.3 61 3.1 WNW 35 52 19 28 1005.6 1005.6 7.0
16/08:08pm 9.9 2.7 6.1 77 1.8 WNW 33 52 18 28 1005.6 1005.6 7.0
16/08:00pm 10.2 2.6 5.8 74 2.0 WNW 35 50 19 27 1005.5 1005.5 7.0
16/07:33pm 8.8 2.6 6.1 83 1.2 WNW 28 46 15 25 1005.2 1005.2 7.0
16/07:31pm 8.6 3.2 6.4 86 1.0 WNW 24 37 13 20 1005.2 1005.2 7.0
16/07:30pm 8.5 3.5 6.3 86 1.0 WNW 22 37 12 20 1005.2 1005.2 7.0
16/07:11pm 7.8 1.1 5.4 85 1.1 W 30 59 16 32 1005.8 1005.8 6.4
16/07:10pm 8.3 2.0 5.9 85 1.1 W 28 59 15 32 1005.8 1005.8 6.0
16/07:00pm 9.4 2.0 3.8 68 2.5 WNW 32 48 17 26 1005.1 1005.1 4.8
16/06:30pm 10.8 2.9 4.5 65 2.8 WNW 35 52 19 28 1004.8 1004.8 4.8
16/06:00pm 11.0 1.5 4.0 62 3.1 WNW 43 57 23 31 1004.6 1004.6 4.8
16/05:52pm 11.0 2.7 4.2 63 3.0 NW 37 56 20 30 1004.5 1004.5 4.8
16/05:30pm 10.8 2.1 4.0 63 3.0 NW 39 54 21 29 1004.4 1004.4 4.8
16/05:00pm 10.6 2.7 4.1 64 2.9 NW 35 46 19 25 1004.1 1004.1 4.8
16/04:30pm 10.5 0.8 2.8 59 3.3 NW 43 63 23 34 1004.1 1004.1 4.8
16/04:00pm 11.3 1.9 4.7 64 3.0 WNW 43 61 23 33 1003.8 1003.8 4.8
16/03:32pm 11.4 3.0 5.7 68 2.6 NW 39 57 21 31 1003.6 1003.6 4.8
16/03:30pm 11.5 3.1 5.6 67 2.7 NW 39 54 21 29 1003.6 1003.6 4.8
16/03:03pm 12.1 4.4 5.5 64 3.1 WNW 35 54 19 29 1003.6 1003.6 4.8
16/03:00pm 11.7 4.1 5.8 67 2.8 WNW 35 52 19 28 1003.6 1003.6 4.8
16/02:30pm 11.2 1.8 5.3 67 2.7 WNW 44 63 24 34 1003.7 1003.7 4.6
16/02:02pm 10.2 2.7 6.2 76 1.9 NW 35 54 19 29 1003.5 1003.5 4.6
16/02:00pm 10.2 3.4 7.6 84 1.3 NW 33 44 18 24 1003.5 1003.5 4.6
16/01:56pm 9.8 2.9 7.4 85 1.1 NW 33 46 18 25 1003.5 1003.5 4.6
16/01:37pm 8.0 -2.0 6.1 88 0.9 WNW 48 69 26 37 1004.1 1004.1 4.4
16/01:30pm 9.2 0.8 5.4 77 1.7 WNW 39 65 21 35 1003.6 1003.6 3.6
16/01:11pm 10.5 3.5 6.1 74 2.0 NW 32 56 17 30 1003.3 1003.3 3.6
16/01:00pm 10.5 3.7 6.8 78 1.8 NW 32 46 17 25 1003.4 1003.4 3.4
16/12:52pm 10.4 4.4 6.9 79 1.7 WNW 28 46 15 25 1003.6 1003.6 3.4
16/12:30pm 8.9 2.1 7.0 88 0.9 WNW 32 44 17 24 1004.0 1004.0 3.4
16/12:23pm 8.6 1.8 6.7 88 0.9 WNW 32 48 17 26 1004.1 1004.1 3.4
16/12:09pm 8.1 -1.1 6.2 88 0.9 W 44 65 24 35 1004.6 1004.6 2.8
16/12:03pm 8.1 -1.2 5.7 85 1.1 WNW 44 65 24 35 1004.9 1004.9 2.6
16/12:00pm 8.4 -0.3 6.0 85 1.1 WNW 41 63 22 34 1004.8 1004.8 2.4
16/11:54am 8.4 0.1 5.9 84 1.1 WNW 39 67 21 36 1004.6 1004.6 2.2
16/11:53am 8.4 0.2 6.5 88 0.9 NW 39 67 21 36 1004.6 1004.6 2.2
16/11:52am 8.3 -0.3 6.4 88 0.9 NW 41 67 22 36 1004.6 1004.6 2.2
16/11:47am 8.9 0.2 6.2 83 1.2 NW 41 61 22 33 1004.4 1004.4 1.2
16/11:30am 11.2 3.2 5.5 68 2.6 NW 37 57 20 31 1003.9 1003.9 0.4
16/11:12am 11.3 2.7 4.5 63 3.1 NW 39 57 21 31 1004.1 1004.1 0.4
16/11:00am 11.6 1.7 4.6 62 3.2 NW 46 63 25 34 1004.0 1004.0 0.4
16/10:44am 11.3 2.7 4.7 64 3.0 NW 39 61 21 33 1003.9 1003.9 0.4
16/10:30am 11.2 3.2 5.5 68 2.6 WNW 37 52 20 28 1003.8 1003.8 0.4
16/10:16am 11.1 3.8 5.6 69 2.5 WNW 33 52 18 28 1003.9 1003.9 0.4
16/10:00am 9.8 3.2 6.2 78 1.7 WNW 30 44 16 24 1003.9 1003.9 0.4
16/09:57am 9.6 3.4 6.3 80 1.5 WNW 28 44 15 24 1003.9 1003.9 0.4
16/09:47am 8.7 -0.4 6.0 83 1.2 W 43 67 23 36 1003.9 1003.9 0.4
16/09:30am 11.8 2.8 4.8 62 3.2 WNW 41 59 22 32 1003.6 1003.6 0.0
16/09:22am 11.4 3.9 6.1 70 2.5 NW 35 56 19 30 1003.3 1003.3 0.0
16/09:00am 11.1 2.1 4.6 64 2.9 NW 41 56 22 30 1003.2 1003.2 18.4
16/08:30am 9.7 2.4 5.5 75 1.9 NW 33 54 18 29 1003.1 1003.1 18.4
16/08:06am 9.2 -1.6 4.0 70 2.3 WNW 50 83 27 45 1003.3 1003.3 18.2
16/08:02am 11.0 1.6 4.7 65 2.8 WNW 43 61 23 33 1002.6 1002.6 18.0
16/08:00am 10.6 1.6 4.7 67 2.7 NW 41 57 22 31 1002.6 1002.6 18.0
16/07:38am 8.8 -1.9 4.6 75 1.9 WNW 50 82 27 44 1002.7 1002.7 18.0
16/07:33am 11.2 1.4 5.1 66 2.8 NW 46 82 25 44 1002.4 1002.4 17.8
16/07:30am 11.3 1.9 5.6 68 2.6 NW 44 59 24 32 1002.1 1002.1 17.8
16/07:11am 11.4 3.9 6.3 71 2.4 NW 35 54 19 29 1001.8 1001.8 17.8
16/07:00am 10.7 4.2 6.5 75 2.0 WNW 30 43 16 23 1001.9 1001.9 17.8
16/06:33am 10.3 3.1 6.1 75 1.9 W 33 52 18 28 1001.9 1001.9 17.8
16/06:30am 10.2 2.3 6.0 75 1.9 W 37 54 20 29 1001.8 1001.8 17.8
16/06:22am 10.3 0.8 6.5 77 1.8 WNW 46 65 25 35 1001.8 1001.8 17.8
16/06:21am 10.4 0.8 6.4 76 1.9 WNW 46 65 25 35 1001.8 1001.8 17.8
16/06:00am 11.2 1.9 4.9 65 2.9 WNW 43 63 23 34 1001.2 1001.2 17.8
16/05:30am 11.4 2.4 6.5 72 2.3 WNW 43 61 23 33 1001.1 1001.1 17.8
16/05:01am 11.1 3.7 6.6 74 2.1 WNW 35 54 19 29 1000.7 1000.7 17.8
16/05:00am 11.0 3.2 6.6 74 2.1 WNW 37 56 20 30 1000.7 1000.7 17.8
16/04:53am 11.4 2.4 6.3 71 2.4 NW 43 61 23 33 1000.8 1000.8 17.8
16/04:31am 11.2 1.9 6.1 71 2.4 NW 44 63 24 34 1000.4 1000.4 17.8
16/04:30am 11.2 1.9 6.1 71 2.4 NW 44 61 24 33 1000.4 1000.4 17.8
16/04:05am 11.0 2.7 6.2 72 2.2 NW 39 57 21 31 1000.7 1000.7 17.8
16/04:00am 11.0 2.8 6.6 74 2.1 NW 39 56 21 30 1000.8 1000.8 17.8
16/03:30am 10.0 2.1 6.3 78 1.7 WNW 37 57 20 31 1000.8 1000.8 17.8
16/03:00am 8.9 -1.0 6.7 86 1.0 W 48 70 26 38 1001.0 1001.0 17.8
16/02:45am 9.7 -0.7 6.2 79 1.6 WNW 50 78 27 42 1000.7 1000.7 17.6
16/02:40am 11.6 2.2 5.5 66 2.8 WNW 44 78 24 42 1000.2 1000.2 17.6
16/02:30am 10.7 2.7 7.4 80 1.6 WNW 39 57 21 31 1000.4 1000.4 17.6
16/02:07am 10.7 3.0 7.2 79 1.7 WNW 37 56 20 30 1000.4 1000.4 17.2
16/02:00am 10.4 2.3 7.1 80 1.6 NW 39 56 21 30 1000.5 1000.5 17.2
16/01:30am 10.9 1.9 6.6 75 2.0 WNW 43 65 23 35 1000.4 1000.4 17.2
16/01:01am 10.9 1.7 6.5 74 2.1 WNW 44 63 24 34 1000.4 1000.4 17.2
16/01:00am 10.9 1.4 6.5 74 2.1 WNW 46 63 25 34 1000.4 1000.4 17.2
16/12:30am 10.3 1.5 7.2 81 1.5 WNW 43 70 23 38 1000.4 1000.4 17.2
16/12:26am 10.1 1.0 6.8 80 1.6 WNW 44 70 24 38 1000.4 1000.4 17.2
16/12:12am 9.4 -0.1 8.2 92 0.6 W 48 76 26 41 1000.5 1000.5 17.2
16/12:05am 9.2 -1.4 7.0 86 1.0 WNW 52 70 28 38 1000.5 1000.5 17.0
16/12:00am 10.2 -0.4 7.1 81 1.5 WNW 52 69 28 37 999.9 999.9 17.0
 
Date/Time
EST
Temp
°C
App
Temp
°C
Dew
Point
°C
Rel
Hum
%
Delta-T
°C
Wind Press
QNH
hPa
Press
MSL
hPa
Rain since
9am
mm
Dir  Spd
km/h
Gust
km/h
Spd
kts
Gust
kts
15/11:30pm 11.0 1.0 7.7 80 1.6 WNW 50 69 27 37 999.6 999.6 16.8
15/11:24pm 10.8 2.2 8.2 84 1.3 NW 43 65 23 35 999.4 999.4 16.8
15/11:00pm 10.3 -0.2 7.5 83 1.3 NW 52 95 28 51 998.9 998.9 15.2
15/10:59pm 11.2 1.8 8.8 85 1.2 NW 48 65 26 35 998.8 998.8 14.6
15/10:30pm 11.9 2.6 7.6 75 2.1 NW 46 69 25 37 998.9 998.9 13.8
15/10:00pm 10.7 0.1 8.6 87 1.0 NW 54 87 29 47 998.4 998.4 13.8
15/09:49pm 12.8 3.9 7.7 71 2.5 NW 44 83 24 45 998.1 998.1 13.2
15/09:34pm 12.2 5.3 10.3 88 1.0 NNW 37 56 20 30 998.3 998.3 13.2
15/09:30pm 12.2 5.3 10.4 89 0.9 NNW 37 54 20 29 998.2 998.2 13.2
15/09:00pm 11.3 4.2 9.7 90 0.8 NNW 37 50 20 27 998.1 998.1 13.2
15/08:48pm 11.4 3.6 9.7 89 0.9 NNW 41 56 22 30 998.1 998.1 13.2
15/08:30pm 12.1 4.7 10.0 87 1.1 NW 39 52 21 28 998.3 998.3 12.0
15/08:29pm 12.6 5.6 11.3 92 0.7 NW 39 52 21 28 998.3 998.3 12.0
15/08:00pm 13.0 6.7 10.9 87 1.1 NNW 35 48 19 26 998.1 998.1 11.2
15/07:30pm 12.9 6.6 11.1 89 0.9 NW 35 52 19 28 998.4 998.4 11.2
15/07:28pm 12.8 6.5 10.9 88 1.0 NW 35 52 19 28 998.4 998.4 11.2
15/07:27pm 12.8 6.9 11.0 89 0.9 NW 33 52 18 28 998.4 998.4 11.0
15/07:00pm 12.2 6.3 11.3 94 0.5 NNW 33 48 18 26 998.6 998.6 10.8
15/06:49pm 12.4 6.1 11.0 91 0.7 NW 35 57 19 31 998.8 998.8 10.8
15/06:48pm 12.5 6.2 11.2 92 0.7 NW 35 50 19 27 998.8 998.8 10.8
15/06:30pm 12.3 6.9 11.0 92 0.7 N 30 43 16 23 998.5 998.5 10.6
15/06:21pm 12.2 7.2 10.8 91 0.7 N 28 48 15 26 997.9 997.9 10.6
15/06:00pm 12.3 8.0 10.7 90 0.8 N 24 33 13 18 998.4 998.4 10.6
15/05:30pm 12.3 8.0 10.7 90 0.8 N 24 32 13 17 998.8 998.8 10.6
15/05:00pm 12.4 8.1 10.6 89 0.9 N 24 37 13 20 999.6 999.6 10.6
15/04:30pm 12.3 7.5 10.4 88 1.0 N 26 43 14 23 999.9 999.9 10.6
15/04:00pm 12.6 8.4 11.2 91 0.7 N 24 35 13 19 1000.3 1000.3 10.6
15/03:30pm 11.7 8.1 10.6 93 0.6 N 20 32 11 17 1000.4 1000.4 10.4
15/03:00pm 11.1 7.7 10.5 96 0.3 N 19 30 10 16 1000.0 1000.0 10.4
15/02:30pm 11.0 6.9 10.2 95 0.4 NNW 22 37 12 20 1001.3 1001.3 9.8
15/02:20pm 11.2 6.9 10.6 96 0.3 NW 24 35 13 19 1001.5 1001.5 9.2
15/02:18pm 11.2 6.4 10.4 95 0.4 NW 26 35 14 19 1001.6 1001.6 9.2
15/02:00pm 11.0 6.2 10.2 95 0.4 WNW 26 43 14 23 1001.9 1001.9 8.2
15/01:53pm 11.3 5.8 10.7 96 0.3 W 30 48 16 26 1002.1 1002.1 7.6
15/01:30pm 11.3 7.3 10.5 95 0.4 W 22 33 12 18 1001.4 1001.4 5.2
15/01:00pm 11.2 5.6 10.3 94 0.5 W 30 39 16 21 1001.9 1001.9 4.2
15/12:37pm 11.8 6.1 11.2 96 0.3 NW 32 54 17 29 1002.5 1002.5 2.6
15/12:30pm 12.3 5.7 11.4 94 0.5 NNW 37 54 20 29 1002.4 1002.4 2.4
15/12:27pm 13.4 8.0 12.9 97 0.3 NNW 33 54 18 29 1002.3 1002.3 2.0
15/12:21pm 13.5 8.2 13.0 97 0.3 NNW 33 48 18 26 1002.3 1002.3 1.8
15/12:00pm 13.5 8.1 12.1 91 0.8 NNW 32 52 17 28 1002.8 1002.8 0.2
15/11:58am 13.9 9.1 11.8 87 1.1 NNW 28 52 15 28 1002.9 1002.9 0.0
15/11:30am 14.8 11.0 11.0 78 2.0 N 22 39 12 21 1003.2 1003.2 0.0
15/11:00am 16.0 12.2 12.4 79 2.0 N 24 33 13 18 1003.8 1003.8 0.0
15/10:30am 14.4 11.3 12.3 87 1.1 N 20 32 11 17 1004.2 1004.2 0.0
15/10:00am 14.4 11.0 12.4 88 1.1 N 22 32 12 17 1004.7 1004.7 0.0
15/09:30am 13.2 8.8 11.6 90 0.9 N 26 39 14 21 1005.1 1005.1 0.0
15/09:00am 13.1 9.5 12.0 93 0.6 N 22 30 12 16 1005.3 1005.3 6.0
15/08:59am 13.1 9.5 12.0 93 0.6 N 22 28 12 15 1005.3 1005.3 6.0
15/08:43am 13.0 9.6 11.4 90 0.8 N 20 30 11 16 1005.5 1005.5 5.8
15/08:30am 13.1 9.8 11.5 90 0.8 N 20 32 11 17 1005.3 1005.3 5.4
15/08:00am 12.4 7.8 11.0 91 0.7 N 26 33 14 18 1005.4 1005.4 5.4
15/07:35am 12.7 8.7 11.8 94 0.5 N 24 35 13 19 1005.3 1005.3 5.4
15/07:30am 12.7 8.3 11.8 94 0.5 N 26 37 14 20 1005.3 1005.3 5.4
15/07:21am 12.8 8.8 11.9 94 0.5 N 24 35 13 19 1005.4 1005.4 5.4
15/07:00am 12.8 10.1 11.7 93 0.6 N 17 22 9 12 1005.3 1005.3 5.0
15/06:30am 12.8 10.2 11.9 94 0.5 N 17 24 9 13 1005.5 1005.5 5.0
15/06:00am 12.6 9.3 11.7 94 0.5 N 20 28 11 15 1005.5 1005.5 5.0
15/05:30am 12.7 9.5 11.9 95 0.4 N 20 28 11 15 1005.5 1005.5 4.8
15/05:22am 12.8 8.9 12.0 95 0.4 N 24 35 13 19 1005.6 1005.6 4.8
15/05:11am 12.9 8.6 12.1 95 0.4 N 26 37 14 20 1005.7 1005.7 4.8
15/05:00am 12.9 9.2 11.6 92 0.7 N 22 35 12 19 1005.7 1005.7 4.8
15/04:30am 12.9 9.8 12.1 95 0.4 N 20 26 11 14 1005.6 1005.6 4.8
15/04:02am 13.3 9.5 12.5 95 0.4 N 24 32 13 17 1005.9 1005.9 4.8
15/04:00am 13.3 9.5 12.5 95 0.4 N 24 32 13 17 1005.9 1005.9 4.8
15/03:46am 13.6 9.9 12.8 95 0.4 NNW 24 33 13 18 1006.1 1006.1 4.6
15/03:30am 13.3 10.3 12.5 95 0.4 N 20 28 11 15 1006.0 1006.0 4.4
15/03:00am 13.5 10.5 12.7 95 0.4 N 20 26 11 14 1006.1 1006.1 4.4
15/02:41am 13.8 9.8 13.0 95 0.4 NNW 26 35 14 19 1006.2 1006.2 4.4
15/02:39am 13.8 9.8 13.0 95 0.4 NNW 26 39 14 21 1006.2 1006.2 4.4
15/02:30am 14.0 10.1 13.2 95 0.4 NNW 26 39 14 21 1006.3 1006.3 4.4
15/02:28am 14.2 10.7 13.4 95 0.4 NNW 24 33 13 18 1006.4 1006.4 4.0
15/02:17am 14.7 11.3 13.6 93 0.6 NNW 24 35 13 19 1006.3 1006.3 2.8
15/02:00am 14.9 11.0 13.4 91 0.8 NNW 26 35 14 19 1006.2 1006.2 2.6
15/01:30am 14.9 9.9 13.3 90 0.9 NNW 32 43 17 23 1006.3 1006.3 2.6
15/01:00am 14.6 9.6 13.5 93 0.6 NNW 32 44 17 24 1006.3 1006.3 2.6
15/12:50am 14.4 9.1 13.1 92 0.7 NNW 33 48 18 26 1006.3 1006.3 2.6
15/12:32am 14.9 10.2 13.1 89 1.0 NW 30 43 16 23 1006.2 1006.2 2.6
15/12:30am 15.3 10.8 13.7 90 0.9 NNW 30 43 16 23 1006.2 1006.2 2.0
15/12:00am 15.5 10.3 13.5 88 1.1 NNW 33 44 18 24 1006.2 1006.2 2.0
 
Date/Time
EST
Temp
°C
App
Temp
°C
Dew
Point
°C
Rel
Hum
%
Delta-T
°C
Wind Press
QNH
hPa
Press
MSL
hPa
Rain since
9am
mm
Dir  Spd
km/h
Gust
km/h
Spd
kts
Gust
kts
14/11:30pm 15.4 10.4 13.9 91 0.8 NNW 33 46 18 25 1006.0 1006.0 2.0
14/11:00pm 15.1 10.1 13.3 89 1.0 NNW 32 39 17 21 1006.0 1006.0 2.0
14/10:30pm 15.5 11.0 13.7 89 1.0 NNW 30 43 16 23 1006.1 1006.1 2.0
14/10:00pm 15.6 10.7 13.8 89 1.0 NNW 32 46 17 25 1006.1 1006.1 2.0
14/09:30pm 15.6 11.3 14.3 92 0.7 NNW 30 41 16 22 1006.1 1006.1 2.0
14/09:00pm 15.5 10.2 14.2 92 0.7 NNW 35 50 19 27 1005.8 1005.8 2.0
14/08:30pm 15.5 10.6 14.2 92 0.7 NNW 33 46 18 25 1005.6 1005.6 2.0
14/08:16pm 15.5 10.6 14.4 93 0.6 NNW 33 52 18 28 1005.5 1005.5 2.0
14/08:15pm 15.5 10.3 14.4 93 0.6 NNW 35 52 19 28 1005.4 1005.4 2.0
14/08:03pm 15.4 10.7 14.3 93 0.6 NNW 32 50 17 27 1005.1 1005.1 2.0
14/08:02pm 15.4 10.7 14.3 93 0.6 NNW 32 46 17 25 1004.9 1004.9 2.0
14/08:00pm 15.5 10.6 14.2 92 0.7 NNW 33 46 18 25 1004.9 1004.9 1.6
14/07:35pm 15.9 9.3 13.7 87 1.2 NNW 41 59 22 32 1005.1 1005.1 1.2
14/07:30pm 15.9 8.9 13.6 86 1.3 NNW 43 59 23 32 1005.1 1005.1 1.2
14/07:14pm 16.2 10.3 13.5 84 1.5 NNW 37 56 20 30 1004.8 1004.8 1.2
14/07:00pm 16.1 9.7 13.2 83 1.6 NNW 39 56 21 30 1004.7 1004.7 1.2
14/06:30pm 16.4 10.0 13.1 81 1.8 NNW 39 61 21 33 1004.2 1004.2 1.2
14/06:00pm 16.4 10.6 12.8 79 2.0 N 35 59 19 32 1003.7 1003.7 1.2
14/05:30pm 16.6 10.0 12.6 77 2.2 N 39 59 21 32 1003.5 1003.5 1.2
14/05:03pm 16.3 10.5 12.7 79 2.0 N 35 59 19 32 1003.8 1003.8 1.2
14/05:00pm 16.3 10.5 12.7 79 2.0 N 35 52 19 28 1003.8 1003.8 1.2
14/04:45pm 16.4 10.7 12.9 80 1.9 NNW 35 54 19 29 1003.9 1003.9 1.2
14/04:30pm 16.4 11.0 12.9 80 1.9 NNW 33 48 18 26 1003.9 1003.9 1.2
14/04:06pm 16.4 9.9 12.9 80 1.9 NNW 39 57 21 31 1003.7 1003.7 1.2
14/04:00pm 16.4 9.9 12.9 80 2.0 NNW 39 56 21 30 1003.7 1003.7 1.2
14/03:33pm 16.4 10.7 12.9 80 1.9 NNW 35 54 19 29 1003.5 1003.5 1.2
14/03:30pm 16.4 11.1 13.1 81 1.8 N 33 48 18 26 1003.4 1003.4 1.2
14/03:23pm 16.4 12.2 13.5 83 1.6 N 28 46 15 25 1003.5 1003.5 1.2
14/03:00pm 15.1 10.8 13.1 88 1.1 N 28 39 15 21 1003.3 1003.3 1.2
14/02:30pm 15.3 11.7 13.0 86 1.3 N 24 41 13 22 1003.0 1003.0 1.2
14/02:00pm 15.9 12.4 13.4 85 1.4 N 24 43 13 23 1003.0 1003.0 1.2
14/01:41pm 16.0 11.0 13.3 84 1.5 N 32 50 17 27 1003.1 1003.1 1.2
14/01:30pm 16.3 12.1 13.4 83 1.6 N 28 39 15 21 1002.9 1002.9 1.2
14/01:00pm 16.4 11.9 13.9 85 1.4 N 30 44 16 24 1003.1 1003.1 1.2
14/12:30pm 16.2 13.0 14.2 88 1.1 NNW 24 35 13 19 1003.5 1003.5 1.2
14/12:00pm 15.9 13.6 14.6 92 0.7 N 20 32 11 17 1003.9 1003.9 1.2
14/11:30am 15.7 13.3 14.4 92 0.7 N 20 30 11 16 1004.9 1004.9 1.0
14/11:00am 15.8 13.7 14.7 93 0.6 N 19 24 10 13 1005.3 1005.3 1.0
14/10:30am 15.5 13.7 14.5 94 0.6 N 17 20 9 11 1005.8 1005.8 0.4
14/10:00am 15.4 14.0 14.4 94 0.6 N 15 22 8 12 1005.6 1005.6 0.2
14/09:30am 15.3 13.8 14.3 94 0.6 N 15 20 8 11 1006.1 1006.1 0.0
14/09:00am 15.1 13.1 14.0 93 0.6 N 17 24 9 13 1006.5 1006.5 5.6
14/08:30am 15.1 12.4 13.6 91 0.8 N 20 26 11 14 1006.6 1006.6 5.2
14/08:00am 15.2 12.0 13.2 88 1.1 N 22 32 12 17 1006.8 1006.8 5.2
14/07:30am 15.1 11.9 13.0 87 1.2 N 22 33 12 18 1006.4 1006.4 5.2
14/07:00am 14.2 12.3 12.9 92 0.7 NNE 15 22 8 12 1006.8 1006.8 5.2
14/06:30am 13.8 13.0 12.9 94 0.5 ENE 9 13 5 7 1007.1 1007.1 5.0
14/06:00am 13.1 12.1 12.3 95 0.4 SW 9 13 5 7 1007.6 1007.6 4.8
14/05:30am 13.1 12.5 12.3 95 0.4 NE 7 13 4 7 1007.7 1007.7 4.6
14/05:00am 13.1 13.1 12.3 95 0.4 SE 4 11 2 6 1008.1 1008.2 4.2
14/04:30am 12.8 11.4 12.3 97 0.3 SSE 11 17 6 9 1008.3 1008.4 4.0
14/04:26am 12.8 11.8 12.3 97 0.3 SSE 9 17 5 9 1008.1 1008.2 3.8
14/04:14am 12.9 12.3 12.3 96 0.3 SSE 7 13 4 7 1008.7 1008.8 3.6
14/04:00am 13.0 12.0 12.2 95 0.4 SE 9 15 5 8 1009.1 1009.2 2.6
14/03:30am 12.6 12.2 12.3 98 0.2 SSE 6 11 3 6 1009.4 1009.5 2.6
14/03:00am 12.6 11.2 12.1 97 0.3 SSE 11 15 6 8 1009.7 1009.8 2.2
14/02:30am 12.5 11.4 12.0 97 0.3 SW 9 11 5 6 1010.5 1010.6 0.6

Other formats

Comma delimited format used in spreadsheet applications
http://www.bom.gov.au/fwo/IDT60801/IDT60801.94956.axf

JavaScript Object Notation format (JSON) in row-major order
http://www.bom.gov.au/fwo/IDT60801/IDT60801.94956.json

Data quality

Most of these data are generated automatically and are frequently updated. Quality checks on data are not normally performed. It is possible for incorrect values to appear. Refer to information at About Latest Weather Observations and please check the disclaimer before using these data.